sensor_id;sensor_type;location;lat;lon;timestamp;pressure;altitude;pressure_sealevel;temperature;humidity
7834;BME280;3962;42.696;23.354;2023-02-19T00:00:20;95476.50;;;7.44;64.52
7834;BME280;3962;42.696;23.354;2023-02-19T00:02:47;95469.91;;;7.38;64.97
7834;BME280;3962;42.696;23.354;2023-02-19T00:05:39;95478.81;;;7.26;64.80
7834;BME280;3962;42.696;23.354;2023-02-19T00:08:09;95465.97;;;7.22;65.50
7834;BME280;3962;42.696;23.354;2023-02-19T00:10:38;95463.69;;;7.17;64.68
7834;BME280;3962;42.696;23.354;2023-02-19T00:13:07;95459.97;;;7.20;65.64
7834;BME280;3962;42.696;23.354;2023-02-19T00:15:36;95458.53;;;7.16;64.53
7834;BME280;3962;42.696;23.354;2023-02-19T00:18:15;95453.97;;;7.07;65.81
7834;BME280;3962;42.696;23.354;2023-02-19T00:20:58;95452.91;;;6.99;66.16
7834;BME280;3962;42.696;23.354;2023-02-19T00:23:29;95463.59;;;6.97;66.72
7834;BME280;3962;42.696;23.354;2023-02-19T00:26:01;95456.41;;;6.88;66.98
7834;BME280;3962;42.696;23.354;2023-02-19T00:31:18;95455.78;;;6.85;67.25
7834;BME280;3962;42.696;23.354;2023-02-19T00:33:47;95441.97;;;6.70;67.63
7834;BME280;3962;42.696;23.354;2023-02-19T00:36:19;95444.84;;;6.67;67.73
7834;BME280;3962;42.696;23.354;2023-02-19T00:38:51;95439.69;;;6.66;68.61
7834;BME280;3962;42.696;23.354;2023-02-19T00:41:21;95447.03;;;6.73;67.54
7834;BME280;3962;42.696;23.354;2023-02-19T00:43:58;95431.88;;;6.75;67.01
7834;BME280;3962;42.696;23.354;2023-02-19T00:46:35;95433.81;;;6.62;68.15
7834;BME280;3962;42.696;23.354;2023-02-19T00:49:08;95447.63;;;6.66;68.21
7834;BME280;3962;42.696;23.354;2023-02-19T00:51:41;95418.06;;;6.61;67.81
7834;BME280;3962;42.696;23.354;2023-02-19T00:54:09;95423.00;;;6.65;68.12
7834;BME280;3962;42.696;23.354;2023-02-19T00:56:41;95420.84;;;6.70;68.49
7834;BME280;3962;42.696;23.354;2023-02-19T00:59:33;95414.69;;;6.70;68.39
7834;BME280;3962;42.696;23.354;2023-02-19T01:02:06;95421.56;;;6.61;68.17
7834;BME280;3962;42.696;23.354;2023-02-19T01:04:37;95417.81;;;6.64;68.70
7834;BME280;3962;42.696;23.354;2023-02-19T01:07:10;95425.13;;;6.60;68.04
7834;BME280;3962;42.696;23.354;2023-02-19T01:09:46;95431.38;;;6.26;68.48
7834;BME280;3962;42.696;23.354;2023-02-19T01:12:13;95436.91;;;6.23;68.20
7834;BME280;3962;42.696;23.354;2023-02-19T01:14:41;95436.41;;;6.18;68.44
7834;BME280;3962;42.696;23.354;2023-02-19T01:17:25;95429.53;;;6.16;69.15
7834;BME280;3962;42.696;23.354;2023-02-19T01:19:56;95422.84;;;6.23;68.02
7834;BME280;3962;42.696;23.354;2023-02-19T01:22:31;95419.22;;;6.24;68.04
7834;BME280;3962;42.696;23.354;2023-02-19T01:25:10;95423.09;;;6.20;67.72
7834;BME280;3962;42.696;23.354;2023-02-19T01:27:42;95418.50;;;6.11;67.73
7834;BME280;3962;42.696;23.354;2023-02-19T01:30:10;95431.06;;;5.96;67.50
7834;BME280;3962;42.696;23.354;2023-02-19T01:32:51;95445.84;;;5.99;68.39
7834;BME280;3962;42.696;23.354;2023-02-19T01:35:18;95430.97;;;6.09;68.60
7834;BME280;3962;42.696;23.354;2023-02-19T01:37:48;95424.00;;;6.08;68.47
7834;BME280;3962;42.696;23.354;2023-02-19T01:40:20;95425.94;;;6.06;68.96
7834;BME280;3962;42.696;23.354;2023-02-19T01:42:55;95445.38;;;6.05;70.25
7834;BME280;3962;42.696;23.354;2023-02-19T01:45:32;95459.84;;;5.88;70.99
7834;BME280;3962;42.696;23.354;2023-02-19T01:48:36;95467.47;;;6.04;70.89
7834;BME280;3962;42.696;23.354;2023-02-19T01:51:21;95454.66;;;6.21;69.96
7834;BME280;3962;42.696;23.354;2023-02-19T01:54:04;95470.38;;;6.23;70.56
7834;BME280;3962;42.696;23.354;2023-02-19T01:56:37;95468.09;;;6.18;70.49
7834;BME280;3962;42.696;23.354;2023-02-19T01:59:12;95455.59;;;6.20;70.57
7834;BME280;3962;42.696;23.354;2023-02-19T02:01:40;95457.28;;;6.10;70.71
7834;BME280;3962;42.696;23.354;2023-02-19T02:04:24;95455.25;;;6.14;70.13
7834;BME280;3962;42.696;23.354;2023-02-19T02:06:53;95456.91;;;6.04;70.06
7834;BME280;3962;42.696;23.354;2023-02-19T02:09:25;95458.94;;;6.11;69.75
7834;BME280;3962;42.696;23.354;2023-02-19T02:12:13;95464.44;;;5.97;69.43
7834;BME280;3962;42.696;23.354;2023-02-19T02:14:50;95462.03;;;5.94;70.19
7834;BME280;3962;42.696;23.354;2023-02-19T02:17:27;95467.16;;;5.85;70.37
7834;BME280;3962;42.696;23.354;2023-02-19T02:20:17;95469.72;;;5.97;70.81
7834;BME280;3962;42.696;23.354;2023-02-19T02:22:54;95458.34;;;6.08;69.66
7834;BME280;3962;42.696;23.354;2023-02-19T02:25:59;95466.00;;;6.00;69.80
7834;BME280;3962;42.696;23.354;2023-02-19T02:32:04;95460.09;;;5.85;70.69
7834;BME280;3962;42.696;23.354;2023-02-19T02:34:44;95466.31;;;5.84;70.63
7834;BME280;3962;42.696;23.354;2023-02-19T02:37:18;95461.31;;;5.92;69.81
7834;BME280;3962;42.696;23.354;2023-02-19T02:39:50;95450.28;;;5.75;70.19
7834;BME280;3962;42.696;23.354;2023-02-19T02:42:24;95461.41;;;5.80;70.98
7834;BME280;3962;42.696;23.354;2023-02-19T02:44:54;95456.94;;;5.80;70.27
7834;BME280;3962;42.696;23.354;2023-02-19T02:47:42;95461.06;;;5.84;70.51
7834;BME280;3962;42.696;23.354;2023-02-19T02:50:13;95448.81;;;5.83;70.51
7834;BME280;3962;42.696;23.354;2023-02-19T02:52:43;95459.38;;;5.83;70.05
7834;BME280;3962;42.696;23.354;2023-02-19T02:55:30;95455.06;;;5.82;70.01
7834;BME280;3962;42.696;23.354;2023-02-19T02:57:59;95455.47;;;5.76;69.97
7834;BME280;3962;42.696;23.354;2023-02-19T03:00:26;95461.19;;;5.70;70.68
7834;BME280;3962;42.696;23.354;2023-02-19T03:03:18;95473.00;;;5.77;71.03
7834;BME280;3962;42.696;23.354;2023-02-19T03:05:47;95466.94;;;5.88;70.39
7834;BME280;3962;42.696;23.354;2023-02-19T03:08:28;95472.22;;;5.88;70.19
7834;BME280;3962;42.696;23.354;2023-02-19T03:11:01;95475.34;;;5.93;69.85
7834;BME280;3962;42.696;23.354;2023-02-19T03:13:51;95475.00;;;5.97;70.55
7834;BME280;3962;42.696;23.354;2023-02-19T03:16:47;95478.16;;;6.13;69.84
7834;BME280;3962;42.696;23.354;2023-02-19T03:19:40;95474.59;;;6.14;69.28
7834;BME280;3962;42.696;23.354;2023-02-19T03:22:13;95488.88;;;6.12;68.31
7834;BME280;3962;42.696;23.354;2023-02-19T03:24:52;95488.88;;;6.12;68.46
7834;BME280;3962;42.696;23.354;2023-02-19T03:27:41;95486.94;;;6.14;68.64
7834;BME280;3962;42.696;23.354;2023-02-19T03:30:13;95482.97;;;6.08;68.84
7834;BME280;3962;42.696;23.354;2023-02-19T03:32:48;95486.66;;;5.95;69.35
7834;BME280;3962;42.696;23.354;2023-02-19T03:35:29;95502.59;;;5.93;69.81
7834;BME280;3962;42.696;23.354;2023-02-19T03:38:17;95498.13;;;5.83;69.61
7834;BME280;3962;42.696;23.354;2023-02-19T03:40:53;95509.84;;;5.79;69.05
7834;BME280;3962;42.696;23.354;2023-02-19T03:43:29;95515.88;;;5.81;69.37
7834;BME280;3962;42.696;23.354;2023-02-19T03:46:06;95516.63;;;5.70;69.78
7834;BME280;3962;42.696;23.354;2023-02-19T03:48:46;95515.38;;;5.63;70.26
7834;BME280;3962;42.696;23.354;2023-02-19T03:51:25;95524.84;;;5.55;70.28
7834;BME280;3962;42.696;23.354;2023-02-19T03:53:57;95524.31;;;5.50;70.57
7834;BME280;3962;42.696;23.354;2023-02-19T03:56:37;95519.19;;;5.36;71.67
7834;BME280;3962;42.696;23.354;2023-02-19T03:59:10;95516.44;;;5.37;71.01
7834;BME280;3962;42.696;23.354;2023-02-19T04:01:49;95522.84;;;5.46;71.93
7834;BME280;3962;42.696;23.354;2023-02-19T04:04:19;95521.69;;;5.50;71.43
7834;BME280;3962;42.696;23.354;2023-02-19T04:06:53;95526.19;;;5.60;71.49
7834;BME280;3962;42.696;23.354;2023-02-19T04:09:29;95520.16;;;5.58;71.25
7834;BME280;3962;42.696;23.354;2023-02-19T04:12:12;95532.97;;;5.52;71.25
7834;BME280;3962;42.696;23.354;2023-02-19T04:14:43;95540.09;;;5.62;71.26
7834;BME280;3962;42.696;23.354;2023-02-19T04:17:16;95542.78;;;5.50;70.97
7834;BME280;3962;42.696;23.354;2023-02-19T04:19:47;95537.56;;;5.61;71.17
7834;BME280;3962;42.696;23.354;2023-02-19T04:22:17;95532.13;;;5.75;71.11
7834;BME280;3962;42.696;23.354;2023-02-19T04:24:47;95529.50;;;5.75;70.40
7834;BME280;3962;42.696;23.354;2023-02-19T04:27:15;95534.38;;;5.68;71.16
7834;BME280;3962;42.696;23.354;2023-02-19T04:29:44;95524.88;;;5.66;71.20
7834;BME280;3962;42.696;23.354;2023-02-19T04:32:20;95532.00;;;5.53;72.11
7834;BME280;3962;42.696;23.354;2023-02-19T04:34:57;95537.66;;;5.36;72.79
7834;BME280;3962;42.696;23.354;2023-02-19T04:37:27;95542.84;;;5.37;72.60
7834;BME280;3962;42.696;23.354;2023-02-19T04:39:55;95537.00;;;5.45;73.39
7834;BME280;3962;42.696;23.354;2023-02-19T04:42:25;95549.19;;;5.58;73.40
7834;BME280;3962;42.696;23.354;2023-02-19T04:45:03;95542.31;;;5.68;71.34
7834;BME280;3962;42.696;23.354;2023-02-19T04:47:30;95541.16;;;5.60;71.07
7834;BME280;3962;42.696;23.354;2023-02-19T04:49:57;95547.72;;;5.54;71.79
7834;BME280;3962;42.696;23.354;2023-02-19T04:52:26;95543.91;;;5.58;72.53
7834;BME280;3962;42.696;23.354;2023-02-19T04:54:55;95547.72;;;5.54;71.66
7834;BME280;3962;42.696;23.354;2023-02-19T04:57:23;95534.94;;;5.61;72.11
7834;BME280;3962;42.696;23.354;2023-02-19T05:00:00;95554.72;;;5.79;71.57
7834;BME280;3962;42.696;23.354;2023-02-19T05:02:28;95552.59;;;5.84;71.54
7834;BME280;3962;42.696;23.354;2023-02-19T05:04:55;95553.50;;;5.95;71.10
7834;BME280;3962;42.696;23.354;2023-02-19T05:07:22;95555.47;;;6.04;70.46
7834;BME280;3962;42.696;23.354;2023-02-19T05:09:50;95553.31;;;6.09;71.12
7834;BME280;3962;42.696;23.354;2023-02-19T05:12:17;95546.25;;;6.10;70.02
7834;BME280;3962;42.696;23.354;2023-02-19T05:14:43;95545.06;;;6.14;69.81
7834;BME280;3962;42.696;23.354;2023-02-19T05:17:10;95559.16;;;6.25;69.75
7834;BME280;3962;42.696;23.354;2023-02-19T05:19:37;95555.44;;;6.28;70.21
7834;BME280;3962;42.696;23.354;2023-02-19T05:22:04;95557.09;;;6.18;69.94
7834;BME280;3962;42.696;23.354;2023-02-19T05:24:31;95559.75;;;6.18;69.40
7834;BME280;3962;42.696;23.354;2023-02-19T05:26:59;95545.69;;;6.17;70.68
7834;BME280;3962;42.696;23.354;2023-02-19T05:29:26;95557.56;;;6.23;70.36
7834;BME280;3962;42.696;23.354;2023-02-19T05:31:52;95571.75;;;6.22;70.54
7834;BME280;3962;42.696;23.354;2023-02-19T05:34:19;95566.44;;;6.11;70.39
7834;BME280;3962;42.696;23.354;2023-02-19T05:36:46;95578.81;;;6.21;70.24
7834;BME280;3962;42.696;23.354;2023-02-19T05:39:13;95581.19;;;6.37;70.33
7834;BME280;3962;42.696;23.354;2023-02-19T05:41:39;95583.84;;;6.48;69.74
7834;BME280;3962;42.696;23.354;2023-02-19T05:44:08;95582.56;;;6.53;69.83
7834;BME280;3962;42.696;23.354;2023-02-19T05:46:35;95585.41;;;6.16;69.40
7834;BME280;3962;42.696;23.354;2023-02-19T05:49:02;95589.44;;;6.09;69.32
7834;BME280;3962;42.696;23.354;2023-02-19T05:51:29;95591.34;;;5.96;70.16
7834;BME280;3962;42.696;23.354;2023-02-19T05:53:56;95593.50;;;6.25;69.96
7834;BME280;3962;42.696;23.354;2023-02-19T05:56:29;95589.66;;;6.29;69.32
7834;BME280;3962;42.696;23.354;2023-02-19T05:58:56;95599.28;;;6.30;69.87
7834;BME280;3962;42.696;23.354;2023-02-19T06:01:26;95596.88;;;6.27;68.65
7834;BME280;3962;42.696;23.354;2023-02-19T06:03:54;95595.22;;;6.37;69.68
7834;BME280;3962;42.696;23.354;2023-02-19T06:06:21;95598.00;;;6.47;69.18
7834;BME280;3962;42.696;23.354;2023-02-19T06:08:48;95611.50;;;6.55;68.90
7834;BME280;3962;42.696;23.354;2023-02-19T06:11:15;95613.59;;;6.62;68.97
7834;BME280;3962;42.696;23.354;2023-02-19T06:13:42;95618.66;;;6.76;69.09
7834;BME280;3962;42.696;23.354;2023-02-19T06:16:09;95621.06;;;6.79;67.56
7834;BME280;3962;42.696;23.354;2023-02-19T06:18:38;95618.22;;;6.93;68.24
7834;BME280;3962;42.696;23.354;2023-02-19T06:21:07;95617.00;;;6.97;67.38
7834;BME280;3962;42.696;23.354;2023-02-19T06:23:34;95619.81;;;7.07;67.04
7834;BME280;3962;42.696;23.354;2023-02-19T06:26:09;95622.00;;;7.13;67.75
7834;BME280;3962;42.696;23.354;2023-02-19T06:28:37;95615.22;;;7.19;67.62
7834;BME280;3962;42.696;23.354;2023-02-19T06:31:05;95615.25;;;7.30;67.89
7834;BME280;3962;42.696;23.354;2023-02-19T06:33:32;95614.88;;;7.46;67.16
7834;BME280;3962;42.696;23.354;2023-02-19T06:36:02;95615.50;;;7.60;66.31
7834;BME280;3962;42.696;23.354;2023-02-19T06:38:30;95615.47;;;7.71;66.14
7834;BME280;3962;42.696;23.354;2023-02-19T06:40:59;95618.97;;;7.83;65.17
7834;BME280;3962;42.696;23.354;2023-02-19T06:43:26;95618.91;;;7.94;65.42
7834;BME280;3962;42.696;23.354;2023-02-19T06:45:53;95613.72;;;8.03;64.22
7834;BME280;3962;42.696;23.354;2023-02-19T06:48:20;95621.19;;;8.20;63.87
7834;BME280;3962;42.696;23.354;2023-02-19T06:50:46;95625.63;;;8.31;64.10
7834;BME280;3962;42.696;23.354;2023-02-19T06:53:15;95630.91;;;8.31;63.59
7834;BME280;3962;42.696;23.354;2023-02-19T06:55:41;95621.22;;;8.41;63.41
7834;BME280;3962;42.696;23.354;2023-02-19T06:58:08;95627.81;;;8.57;62.84
7834;BME280;3962;42.696;23.354;2023-02-19T07:00:35;95632.81;;;8.71;61.68
7834;BME280;3962;42.696;23.354;2023-02-19T07:03:02;95637.44;;;8.90;61.77
7834;BME280;3962;42.696;23.354;2023-02-19T07:05:29;95645.22;;;9.02;61.02
7834;BME280;3962;42.696;23.354;2023-02-19T07:07:56;95631.72;;;9.15;60.97
7834;BME280;3962;42.696;23.354;2023-02-19T07:10:24;95638.69;;;9.36;59.81
7834;BME280;3962;42.696;23.354;2023-02-19T07:12:51;95634.59;;;9.53;59.77
7834;BME280;3962;42.696;23.354;2023-02-19T07:15:17;95641.78;;;9.71;59.20
7834;BME280;3962;42.696;23.354;2023-02-19T07:17:44;95632.66;;;9.85;59.01
7834;BME280;3962;42.696;23.354;2023-02-19T07:20:12;95629.44;;;9.91;58.85
7834;BME280;3962;42.696;23.354;2023-02-19T07:22:39;95622.59;;;9.98;58.53
7834;BME280;3962;42.696;23.354;2023-02-19T07:25:06;95614.00;;;10.05;58.39
7834;BME280;3962;42.696;23.354;2023-02-19T07:27:34;95611.22;;;10.16;58.31
7834;BME280;3962;42.696;23.354;2023-02-19T07:30:02;95608.84;;;10.32;58.08
7834;BME280;3962;42.696;23.354;2023-02-19T07:32:29;95601.19;;;10.48;57.95
7834;BME280;3962;42.696;23.354;2023-02-19T07:34:55;95593.75;;;10.52;57.42
7834;BME280;3962;42.696;23.354;2023-02-19T07:37:22;95599.22;;;10.69;57.50
7834;BME280;3962;42.696;23.354;2023-02-19T07:39:49;95600.88;;;10.89;57.08
7834;BME280;3962;42.696;23.354;2023-02-19T07:42:16;95594.56;;;10.99;56.82
7834;BME280;3962;42.696;23.354;2023-02-19T07:44:44;95599.34;;;11.05;56.28
7834;BME280;3962;42.696;23.354;2023-02-19T07:47:11;95599.47;;;11.13;56.14
7834;BME280;3962;42.696;23.354;2023-02-19T07:49:38;95591.03;;;11.27;55.61
7834;BME280;3962;42.696;23.354;2023-02-19T07:52:04;95592.13;;;11.34;55.22
7834;BME280;3962;42.696;23.354;2023-02-19T07:54:31;95588.16;;;11.57;54.62
7834;BME280;3962;42.696;23.354;2023-02-19T07:56:58;95596.66;;;11.70;54.01
7834;BME280;3962;42.696;23.354;2023-02-19T07:59:25;95597.19;;;11.74;53.80
7834;BME280;3962;42.696;23.354;2023-02-19T08:01:53;95602.19;;;11.86;53.27
7834;BME280;3962;42.696;23.354;2023-02-19T08:04:38;95595.94;;;12.05;52.50
7834;BME280;3962;42.696;23.354;2023-02-19T08:07:04;95598.31;;;12.08;52.47
7834;BME280;3962;42.696;23.354;2023-02-19T08:09:32;95596.97;;;12.21;51.62
7834;BME280;3962;42.696;23.354;2023-02-19T08:11:59;95589.28;;;12.36;51.18
7834;BME280;3962;42.696;23.354;2023-02-19T08:14:43;95587.66;;;12.52;51.24
7834;BME280;3962;42.696;23.354;2023-02-19T08:17:11;95596.31;;;12.54;50.20
7834;BME280;3962;42.696;23.354;2023-02-19T08:19:38;95595.25;;;12.47;51.22
7834;BME280;3962;42.696;23.354;2023-02-19T08:22:05;95597.25;;;12.63;50.84
7834;BME280;3962;42.696;23.354;2023-02-19T08:24:32;95601.31;;;12.84;50.16
7834;BME280;3962;42.696;23.354;2023-02-19T08:26:58;95595.13;;;13.01;49.07
7834;BME280;3962;42.696;23.354;2023-02-19T08:29:25;95585.72;;;13.99;47.75
7834;BME280;3962;42.696;23.354;2023-02-19T08:31:52;95595.25;;;15.08;45.54
7834;BME280;3962;42.696;23.354;2023-02-19T08:34:20;95600.97;;;16.16;44.37
7834;BME280;3962;42.696;23.354;2023-02-19T08:36:47;95608.06;;;16.86;41.87
7834;BME280;3962;42.696;23.354;2023-02-19T08:39:15;95597.09;;;16.65;42.03
7834;BME280;3962;42.696;23.354;2023-02-19T08:41:42;95604.13;;;17.41;40.67
7834;BME280;3962;42.696;23.354;2023-02-19T08:44:09;95593.22;;;17.94;39.97
7834;BME280;3962;42.696;23.354;2023-02-19T08:46:35;95598.16;;;18.34;39.20
7834;BME280;3962;42.696;23.354;2023-02-19T08:49:03;95586.47;;;18.42;38.88
7834;BME280;3962;42.696;23.354;2023-02-19T08:51:31;95582.16;;;18.18;39.52
7834;BME280;3962;42.696;23.354;2023-02-19T08:54:01;95576.66;;;18.70;38.81
7834;BME280;3962;42.696;23.354;2023-02-19T08:56:28;95590.00;;;18.57;38.52
7834;BME280;3962;42.696;23.354;2023-02-19T08:58:54;95574.13;;;18.83;38.51
7834;BME280;3962;42.696;23.354;2023-02-19T09:01:21;95565.72;;;19.13;37.95
7834;BME280;3962;42.696;23.354;2023-02-19T09:03:52;95560.19;;;19.35;37.88
7834;BME280;3962;42.696;23.354;2023-02-19T09:06:19;95564.81;;;19.96;36.95
7834;BME280;3962;42.696;23.354;2023-02-19T09:08:48;95560.28;;;20.03;36.54
7834;BME280;3962;42.696;23.354;2023-02-19T09:11:15;95556.50;;;20.25;35.80
7834;BME280;3962;42.696;23.354;2023-02-19T09:13:42;95550.13;;;19.50;36.99
7834;BME280;3962;42.696;23.354;2023-02-19T09:16:10;95514.66;;;19.53;37.38
7834;BME280;3962;42.696;23.354;2023-02-19T09:18:36;95535.50;;;19.38;37.45
7834;BME280;3962;42.696;23.354;2023-02-19T09:21:04;95524.25;;;19.14;38.42
7834;BME280;3962;42.696;23.354;2023-02-19T09:23:32;95528.84;;;18.99;39.20
7834;BME280;3962;42.696;23.354;2023-02-19T09:26:00;95532.34;;;18.93;39.39
7834;BME280;3962;42.696;23.354;2023-02-19T09:28:27;95533.47;;;18.84;39.08
7834;BME280;3962;42.696;23.354;2023-02-19T09:30:54;95535.75;;;18.81;39.43
7834;BME280;3962;42.696;23.354;2023-02-19T09:33:21;95530.50;;;18.58;39.50
7834;BME280;3962;42.696;23.354;2023-02-19T09:35:48;95528.03;;;18.42;39.61
7834;BME280;3962;42.696;23.354;2023-02-19T09:38:14;95529.34;;;18.32;40.49
7834;BME280;3962;42.696;23.354;2023-02-19T09:40:41;95534.53;;;18.33;40.47
7834;BME280;3962;42.696;23.354;2023-02-19T09:43:14;95536.94;;;17.85;41.22
7834;BME280;3962;42.696;23.354;2023-02-19T09:45:43;95526.25;;;17.77;41.16
7834;BME280;3962;42.696;23.354;2023-02-19T09:48:11;95526.09;;;18.07;40.77
7834;BME280;3962;42.696;23.354;2023-02-19T09:50:41;95520.63;;;18.30;40.57
7834;BME280;3962;42.696;23.354;2023-02-19T09:53:14;95523.00;;;17.81;41.23
7834;BME280;3962;42.696;23.354;2023-02-19T09:55:43;95519.31;;;17.68;41.56
7834;BME280;3962;42.696;23.354;2023-02-19T09:58:21;95514.94;;;17.81;41.93
7834;BME280;3962;42.696;23.354;2023-02-19T10:00:50;95496.75;;;17.54;41.66
7834;BME280;3962;42.696;23.354;2023-02-19T10:03:22;95496.94;;;17.82;41.64
7834;BME280;3962;42.696;23.354;2023-02-19T10:05:55;95494.81;;;17.63;40.90
7834;BME280;3962;42.696;23.354;2023-02-19T10:08:23;95489.31;;;17.42;41.78
7834;BME280;3962;42.696;23.354;2023-02-19T10:10:51;95482.91;;;17.43;41.19
7834;BME280;3962;42.696;23.354;2023-02-19T10:13:22;95477.38;;;17.44;41.16
7834;BME280;3962;42.696;23.354;2023-02-19T10:15:50;95457.41;;;17.02;41.44
7834;BME280;3962;42.696;23.354;2023-02-19T10:18:21;95465.81;;;16.99;41.62
7834;BME280;3962;42.696;23.354;2023-02-19T10:20:49;95457.81;;;17.28;41.69
7834;BME280;3962;42.696;23.354;2023-02-19T10:23:17;95446.59;;;17.24;41.42
7834;BME280;3962;42.696;23.354;2023-02-19T10:25:46;95444.75;;;17.25;41.64
7834;BME280;3962;42.696;23.354;2023-02-19T10:28:17;95438.88;;;17.58;40.60
7834;BME280;3962;42.696;23.354;2023-02-19T10:30:47;95442.41;;;17.44;39.96
7834;BME280;3962;42.696;23.354;2023-02-19T10:33:16;95431.28;;;17.10;40.82
7834;BME280;3962;42.696;23.354;2023-02-19T10:35:53;95424.03;;;16.96;41.06
7834;BME280;3962;42.696;23.354;2023-02-19T10:38:22;95418.84;;;16.95;41.13
7834;BME280;3962;42.696;23.354;2023-02-19T10:40:57;95410.94;;;16.93;41.18
7834;BME280;3962;42.696;23.354;2023-02-19T10:43:27;95409.44;;;16.91;41.38
7834;BME280;3962;42.696;23.354;2023-02-19T10:46:03;95388.84;;;17.20;41.00
7834;BME280;3962;42.696;23.354;2023-02-19T10:48:34;95393.75;;;17.31;40.75
7834;BME280;3962;42.696;23.354;2023-02-19T10:51:06;95382.53;;;17.28;40.06
7834;BME280;3962;42.696;23.354;2023-02-19T10:53:41;95388.38;;;17.17;40.81
7834;BME280;3962;42.696;23.354;2023-02-19T10:56:12;95371.78;;;17.28;40.70
7834;BME280;3962;42.696;23.354;2023-02-19T10:58:42;95377.31;;;17.26;40.24
7834;BME280;3962;42.696;23.354;2023-02-19T11:01:23;95367.69;;;17.17;40.53
7834;BME280;3962;42.696;23.354;2023-02-19T11:03:52;95358.03;;;17.08;40.75
7834;BME280;3962;42.696;23.354;2023-02-19T11:06:38;95367.78;;;17.09;40.52
7834;BME280;3962;42.696;23.354;2023-02-19T11:09:21;95354.25;;;17.17;40.41
7834;BME280;3962;42.696;23.354;2023-02-19T11:11:49;95347.28;;;17.52;39.88
7834;BME280;3962;42.696;23.354;2023-02-19T11:14:20;95343.88;;;17.93;39.61
7834;BME280;3962;42.696;23.354;2023-02-19T11:16:51;95326.88;;;17.72;39.57
7834;BME280;3962;42.696;23.354;2023-02-19T11:19:27;95331.03;;;17.60;39.63
7834;BME280;3962;42.696;23.354;2023-02-19T11:21:54;95319.47;;;17.45;39.72
7834;BME280;3962;42.696;23.354;2023-02-19T11:24:26;95319.75;;;17.35;39.48
7834;BME280;3962;42.696;23.354;2023-02-19T11:26:55;95318.19;;;17.41;39.43
7834;BME280;3962;42.696;23.354;2023-02-19T11:29:23;95310.56;;;17.30;39.87
7834;BME280;3962;42.696;23.354;2023-02-19T11:31:55;95309.28;;;17.55;40.04
7834;BME280;3962;42.696;23.354;2023-02-19T11:34:28;95296.72;;;17.62;39.75
7834;BME280;3962;42.696;23.354;2023-02-19T11:37:10;95282.63;;;17.60;39.87
7834;BME280;3962;42.696;23.354;2023-02-19T11:39:39;95281.03;;;17.65;39.99
7834;BME280;3962;42.696;23.354;2023-02-19T11:45:31;95262.81;;;17.46;39.75
7834;BME280;3962;42.696;23.354;2023-02-19T11:48:19;95269.56;;;17.57;39.37
7834;BME280;3962;42.696;23.354;2023-02-19T11:50:53;95268.03;;;17.69;39.17
7834;BME280;3962;42.696;23.354;2023-02-19T11:53:26;95277.34;;;17.66;39.05
7834;BME280;3962;42.696;23.354;2023-02-19T11:56:13;95266.00;;;17.71;39.18
7834;BME280;3962;42.696;23.354;2023-02-19T11:58:52;95264.31;;;17.70;38.95
7834;BME280;3962;42.696;23.354;2023-02-19T12:01:26;95254.06;;;17.80;38.44
7834;BME280;3962;42.696;23.354;2023-02-19T12:04:26;95258.81;;;17.99;38.25
7834;BME280;3962;42.696;23.354;2023-02-19T12:07:07;95248.31;;;17.83;38.14
7834;BME280;3962;42.696;23.354;2023-02-19T12:09:49;95241.06;;;17.83;38.33
7834;BME280;3962;42.696;23.354;2023-02-19T12:12:34;95237.84;;;17.94;38.11
7834;BME280;3962;42.696;23.354;2023-02-19T12:15:15;95230.22;;;18.19;38.07
7834;BME280;3962;42.696;23.354;2023-02-19T12:18:00;95219.19;;;18.35;37.24
7834;BME280;3962;42.696;23.354;2023-02-19T12:20:41;95216.38;;;18.49;37.17
7834;BME280;3962;42.696;23.354;2023-02-19T12:23:43;95222.63;;;18.83;36.44
7834;BME280;3962;42.696;23.354;2023-02-19T12:26:19;95218.03;;;18.84;35.83
7834;BME280;3962;42.696;23.354;2023-02-19T12:29:21;95206.25;;;18.85;36.10
7834;BME280;3962;42.696;23.354;2023-02-19T12:32:09;95210.78;;;18.78;36.37
7834;BME280;3962;42.696;23.354;2023-02-19T12:35:07;95200.09;;;18.97;35.73
7834;BME280;3962;42.696;23.354;2023-02-19T12:37:46;95190.63;;;19.14;35.56
7834;BME280;3962;42.696;23.354;2023-02-19T12:40:32;95185.97;;;19.36;35.44
7834;BME280;3962;42.696;23.354;2023-02-19T12:43:08;95177.41;;;19.19;34.68
7834;BME280;3962;42.696;23.354;2023-02-19T12:45:41;95174.94;;;19.24;35.03
7834;BME280;3962;42.696;23.354;2023-02-19T12:48:15;95177.25;;;19.47;34.66
7834;BME280;3962;42.696;23.354;2023-02-19T12:50:46;95166.69;;;19.52;33.97
7834;BME280;3962;42.696;23.354;2023-02-19T12:53:28;95151.97;;;19.54;34.35
7834;BME280;3962;42.696;23.354;2023-02-19T12:55:58;95152.81;;;19.68;33.95
7834;BME280;3962;42.696;23.354;2023-02-19T12:58:31;95150.97;;;19.81;33.77
7834;BME280;3962;42.696;23.354;2023-02-19T13:01:01;95147.66;;;19.99;33.61
7834;BME280;3962;42.696;23.354;2023-02-19T13:03:31;95132.28;;;19.93;33.66
7834;BME280;3962;42.696;23.354;2023-02-19T13:06:04;95130.81;;;19.84;33.57
7834;BME280;3962;42.696;23.354;2023-02-19T13:08:37;95125.63;;;19.69;33.67
7834;BME280;3962;42.696;23.354;2023-02-19T13:11:09;95130.44;;;20.13;33.90
7834;BME280;3962;42.696;23.354;2023-02-19T13:13:42;95116.28;;;19.98;33.21
7834;BME280;3962;42.696;23.354;2023-02-19T13:16:13;95115.06;;;20.20;32.93
7834;BME280;3962;42.696;23.354;2023-02-19T13:18:44;95099.06;;;20.12;33.50
7834;BME280;3962;42.696;23.354;2023-02-19T13:21:12;95106.94;;;20.13;34.35
7834;BME280;3962;42.696;23.354;2023-02-19T13:24:03;95111.78;;;20.94;33.42
7834;BME280;3962;42.696;23.354;2023-02-19T13:27:03;95098.38;;;20.42;33.22
7834;BME280;3962;42.696;23.354;2023-02-19T13:32:52;95086.28;;;20.64;32.59
7834;BME280;3962;42.696;23.354;2023-02-19T13:35:26;95080.59;;;21.29;31.91
7834;BME280;3962;42.696;23.354;2023-02-19T13:37:59;95079.41;;;20.62;32.89
7834;BME280;3962;42.696;23.354;2023-02-19T13:40:31;95083.09;;;20.87;33.05
7834;BME280;3962;42.696;23.354;2023-02-19T13:43:00;95089.56;;;20.79;32.69
7834;BME280;3962;42.696;23.354;2023-02-19T13:45:32;95079.31;;;20.94;32.44
7834;BME280;3962;42.696;23.354;2023-02-19T13:48:12;95072.03;;;20.95;31.34
7834;BME280;3962;42.696;23.354;2023-02-19T13:50:40;95069.47;;;20.49;32.34
7834;BME280;3962;42.696;23.354;2023-02-19T13:56:39;95082.44;;;20.15;33.89
7834;BME280;3962;42.696;23.354;2023-02-19T13:59:22;95077.44;;;19.86;34.35
7834;BME280;3962;42.696;23.354;2023-02-19T14:02:23;95086.13;;;19.42;34.99